Size

Size

Statistiques 2021

  • Nb de partants : 163
  • Nb de victoires : 32
  • Nb de places : 60
  • Écart gagnant : 1
  • Réussite à la gagne : 20%
  • Réussite à la place : 37%
Musique : 0p 1p 3p 3p 0p 0p 2p 9p 10p 3p 5p 1p 5p 3p 1p 9p 2p 6p
ChevalDernière courseCoursesVictoiresR. à la gagnePlacésR. à la place
Juneau Park 17/04/21 9 2 22% 3 33%
Red Desert 17/04/21 14 3 21% 7 50%
Zone D 17/04/21 5 1 20% 4 80%
Leading Fortune 17/04/21 20 3 15% 8 40%
Ping Hai Treasure 17/04/21 16 2 13% 6 38%
Elon 17/04/21 0 0 - 0 -
Savaquin 14/04/21 10 2 20% 5 50%
Aerosonic 14/04/21 6 0 - 0 -
Raging Blaze 14/04/21 3 0 - 0 -
Silver Express 11/04/21 4 1 25% 3 75%
Beauty Fit 11/04/21 1 0 - 1 100%
Courier Wonder 11/04/21 3 3 100% 3 100%
Noble Man 11/04/21 17 1 6% 1 6%
Rhapsody 11/04/21 7 1 14% 2 29%
Dragon Baby 11/04/21 1 1 100% 1 100%
Incanto Prepared 08/04/21 17 4 24% 8 47%
Shining Ace 08/04/21 24 4 17% 12 50%
Wind N Grass 08/04/21 21 3 14% 10 48%
Diamond Star 08/04/21 7 0 - 0 -
Beauty Rush 05/04/21 14 1 7% 1 7%
Beauty Applause 05/04/21 12 3 25% 7 58%
Cheeky Prawn 05/04/21 3 0 - 0 -
Beauty Cheers 05/04/21 2 0 - 0 -
Champion's Way 05/04/21 11 3 27% 4 36%
Waikuku 05/04/21 10 2 20% 4 40%
Super Alliances 31/03/21 21 3 14% 8 38%
Ping Hai Bravo 28/03/21 10 5 50% 6 60%
Gallant Express 28/03/21 1 1 100% 1 100%
Wealthy Delight 24/03/21 10 2 20% 4 40%
Dr Eq 24/03/21 7 0 - 1 14%
Fantastic Way 21/03/21 2 2 100% 2 100%
Excellent Proposal 21/03/21 7 3 43% 4 57%
Lucky Express 21/03/21 10 1 10% 7 70%
Beauty Legacy 21/03/21 15 0 - 1 7%
Scores Of Fun 17/03/21 12 3 25% 9 75%
Tempest Express 13/03/21 8 2 25% 2 25%
Hot King Prawn 13/03/21 12 3 25% 8 67%
Destine Jewellery 07/03/21 20 1 5% 4 20%
Hey Pal 21/02/21 4 0 - 1 25%
Enrichment 17/02/21 18 0 - 4 22%
Sight Success 14/02/21 2 2 100% 2 100%
Wild West Wing 10/02/21 14 2 14% 6 43%
A Smile Like Yours 03/02/21 5 0 - 1 20%
Sell My Sole 24/01/21 0 0 - 0 -
Touch Faith 17/01/21 0 0 - 0 -
Chairman Lo 06/01/21 16 1 6% 3 19%
Heza Beauty 01/01/21 11 3 27% 8 73%
Hong Kong Win 23/12/20 13 3 23% 10 77%
Country Boy 20/12/20 3 0 - 0 -
Nicconi Express 13/12/20 8 1 13% 4 50%